ADDS METAR Data INFO
IDs: Format: Raw Decoded Include TAF

Data at: 2318 UTC 15 Jul 2018

KSET 152254Z AUTO 02006KT 10SM CLR 32/24 A2991 RMK AO2 SLP121 T03220244
KSET 152154Z AUTO VRB03KT 10SM FEW075 32/24 A2992 RMK AO2 SLP126 T03220244
KSET 152054Z AUTO 25003KT 10SM FEW095 31/23 A2993 RMK AO2 SLP129 T03110233 58011
KSET 151954Z AUTO VRB05KT 10SM FEW032 FEW090 32/23 A2994 RMK AO2 SLP132 T03170233
KSET 151854Z AUTO 22007KT 10SM SCT030 31/23 A2996 RMK AO2 SLP139 T03110233
KSET 151754Z AUTO VRB03KT 10SM CLR 31/23 A2996 RMK AO2 SLP141 T03060233 10306 20233 58006
KSET 151654Z AUTO 17008KT 10SM FEW023 29/23 A2998 RMK AO2 SLP146 T02890233
KSET 151618Z AUTO 17005KT 10SM SCT022 BKN027 BKN055 28/23 A2998 RMK AO2 T02830233
KSET 151554Z AUTO 00000KT 10SM BKN050 28/23 A2998 RMK AO2 SLP148 T02830233
KSET 151454Z AUTO 15006KT 10SM FEW014 BKN060 OVC070 27/23 A2998 RMK AO2 SLP148 T02670233 55001
KSET 151354Z AUTO 19005KT 10SM FEW012 26/23 A2998 RMK AO2 SLP147 T02610228
KSET 151254Z AUTO 00000KT 10SM CLR 24/23 A2999 RMK AO2 SLP149 T02440228
KSET 151154Z AUTO 00000KT 10SM OVC095 23/23 A2999 RMK AO2 SLP150 60001 70019 T02330228 10239 20233 53010
KSET 151054Z AUTO 10004KT 10SM FEW050 SCT095 SCT120 23/23 A2998 RMK AO2 SLP146 T02330228
KSET 150954Z AUTO 00000KT 10SM FEW075 SCT090 OVC110 23/23 A2996 RMK AO2 RAB10E36 SLP141 P0001 T02330228
KSET 150854Z AUTO 00000KT 10SM BKN110 23/22 A2996 RMK AO2 SLP137 T02330222 58010
KSET 150754Z AUTO 15003KT 10SM BKN110 23/22 A2997 RMK AO2 SLP141 T02330217
KSET 150654Z AUTO 21006KT 10SM FEW014 24/22 A2998 RMK AO2 SLP145 T02390217
KSET 150554Z AUTO 21005KT 10SM FEW100 23/22 A2999 RMK AO2 SLP148 60004 T02330222 10239 20228 403670228 56013
KSET 150454Z AUTO 00000KT 10SM CLR 23/22 A2999 RMK AO2 SLP149 T02330222
KSET 150354Z AUTO 13005KT 10SM CLR 23/22 A3001 RMK AO2 LTG DSNT E RAB0258E07 SLP158 P0000 T02330222
KSET 150254Z AUTO 15009KT 10SM FEW028 BKN055 BKN070 23/22 A3002 RMK AO2 LTG DSNT SE AND S RAB12E28 SLP161 P0004 60004 T02330222 53008
KSET 150231Z AUTO 16007KT 10SM BKN060 BKN075 OVC095 23/23 A3002 RMK AO2 LTG DSNT SE AND S RAB12E28 P0004 T02330228
KSET 150216Z AUTO 11007KT 7SM VCTS RA FEW033 BKN060 OVC110 23/22 A3000 RMK AO2 LTG DSNT SE AND S RAB12 P0003 T02330222
KSET 150154Z AUTO 09006KT 10SM FEW065 OVC080 23/22 A3000 RMK AO2 SLP154 T02330222
KSET 150054Z AUTO 11009KT 10SM CLR 23/22 A2999 RMK AO2 RAB08E21 SLP150 P0000 T02330222
KSET 142354Z AUTO 09009KT 10SM FEW055 SCT070 SCT085 23/22 A3000 RMK AO2 PK WND 15033/2256 LTG DSNT NE-S RAB2258E09 TSE21 SLP154 P0007 60014 T02330222 10367 20228 53027
KSET 142332Z AUTO 11017G27KT 10SM FEW009 BKN055 BKN070 23/22 A3001 RMK AO2 PK WND 15033/2256 LTG DSNT NE-S RAB2258E09 TSE21 P0007 T02280222
KSET 142323Z AUTO 12018G25KT 10SM VCTS FEW007 SCT042 BKN060 24/22 A3001 RMK AO2 PK WND 15033/2256 LTG DSNT NE-S RAB2258E09 TSE21 PRESRR P0007 T02390222
KSET 142308Z AUTO 11012G20KT 5SM -TSRA FEW039 SCT060 BKN075 26/22 A2998 RMK AO2 PK WND 15033/2256 LTG DSNT ALQDS RAB2258 P0007 T02560222
KSET 142258Z AUTO 14021G33KT 1 1/2SM +TSRA SCT039 BKN065 26/23 A2997 RMK AO2 PK WND 15033/2256 LTG DSNT NE-S RAB58 P0007 T02610233
KSET 142254Z AUTO 10SM TS FEW039 BKN060 BKN075 28/23 A3000 RMK AO2 LTG DSNT NE-S TSE22B31E46B47 PRESRR SLP154 T02780228
KSET 142237Z AUTO 06010KT 10SM TS BKN060 28/23 A2997 RMK AO2 LTG DSNT ALQDS TSE22B31 T02830233
KSET 142228Z AUTO 05009KT 10SM VCTS BKN060 29/24 A2997 RMK AO2 LTG DSNT ALQDS TSE22 PRESRR T02890239
KSET 142154Z AUTO 31007KT 250V340 10SM TS FEW048 OVC060 29/22 A2992 RMK AO2 LTG DSNT ALQDS RAB32E54 TSB32 SLP125 P0007 T02890222
KSET 142146Z AUTO 12016G23KT 2 1/2SM -TSRA SCT048 BKN065 27/22 A2990 RMK AO2 VIS 1 1/4V5 LTG DSNT ALQDS RAB32 TSB32 P0007 T02670217
KSET 142132Z AUTO 00000KT 8SM TSRA BKN065 34/24 A2991 RMK AO2 LTG DSNT ALQDS RAB32 TSB32 P0001 T03390239
KSET 142054Z AUTO 10005KT 10SM CLR 36/23 A2992 RMK AO2 LTG DSNT ALQDS SLP126 T03560228 58017
KSET 141954Z AUTO 08004KT 10SM CLR 35/22 A2994 RMK AO2 SLP133 T03500222
KSET 141908Z AUTO 18010G16KT 10SM FEW095 34/23 A2997 RMK AO2 T03390228
KSET 141854Z AUTO 02003KT 10SM VCTS FEW095 36/24 A2997 RMK AO2 SLP142 T03560239
KSET 141754Z AUTO 23003KT 10SM CLR 34/23 A3000 RMK AO2 SLP154 T03440233 10344 20261 58002
KSET 141654Z AUTO VRB03KT 10SM CLR 34/23 A3001 RMK AO2 SLP157 T03390233
KSET 141554Z AUTO 24007KT 10SM CLR 32/23 A3001 RMK AO2 SLP157 T03220233
KSET 141454Z AUTO 28005KT 10SM CLR 31/24 A3001 RMK AO2 SLP156 T03060239 50000
KSET 141354Z AUTO 23005KT 10SM CLR 29/24 A3001 RMK AO2 SLP157 T02940244
KSET 141254Z AUTO 09003KT 6SM BR CLR 27/24 A3001 RMK AO2 LTG DSNT NE SLP157 T02670244
KSET 141154Z AUTO 12003KT 8SM BKN080 BKN100 27/24 A3001 RMK AO2 LTG DSNT N SLP156 T02670239 10267 20250 51009